Time;durP1;ratioP1;P1;durP2;ratioP2;P2;SDS_P1;SDS_P2;PMS_P1;PMS_P2;Temp;Humidity;BMP_temperature;BMP_pressure;BME280_temperature;BME280_humidity;BME280_pressure;Samples;Min_cycle;Max_cycle;Signal;HPM_P1;HPM_P2
2022/12/09 00:02:20;;;;;;;2.05;0.80;;;;;;;7.48;100.00;100909.34;5028614;28;20045;-73
2022/12/09 00:04:49;;;;;;;1.00;0.70;;;;;;;7.45;100.00;100914.38;5028195;28;20535;-71
2022/12/09 00:07:17;;;;;;;1.27;0.80;;;;;;;7.38;100.00;100913.22;5022508;28;20466;-72
2022/12/09 00:09:46;;;;;;;1.23;0.57;;;;;;;7.32;100.00;100916.38;5025198;28;20057;-72
2022/12/09 00:12:15;;;;;;;1.70;0.77;;;;;;;7.29;100.00;100908.53;5026397;28;20359;-74
2022/12/09 00:14:43;;;;;;;4.30;2.00;;;;;;;7.27;100.00;100907.56;5022624;28;20050;-73
2022/12/09 00:17:13;;;;;;;5.28;1.33;;;;;;;7.28;100.00;100900.72;5025319;28;20045;-72
2022/12/09 00:19:42;;;;;;;4.32;1.48;;;;;;;7.31;100.00;100916.31;5027502;28;20053;-72
2022/12/09 00:22:10;;;;;;;3.03;1.15;;;;;;;7.36;100.00;100911.38;5025806;28;20054;-74
2022/12/09 00:24:39;;;;;;;3.78;1.30;;;;;;;7.37;100.00;100919.16;5031370;28;20550;-72
2022/12/09 00:27:07;;;;;;;1.15;0.85;;;;;;;7.34;100.00;100929.31;5027575;28;20048;-71
2022/12/09 00:29:36;;;;;;;2.30;1.50;;;;;;;7.30;100.00;100925.72;5030366;28;20053;-71
2022/12/09 00:32:05;;;;;;;2.38;1.10;;;;;;;7.25;100.00;100922.06;5027984;28;20095;-74
2022/12/09 00:34:35;;;;;;;2.53;0.80;;;;;;;7.20;100.00;100922.66;5029281;28;20052;-73
2022/12/09 00:37:04;;;;;;;2.13;0.60;;;;;;;7.19;100.00;100913.16;5023441;28;20046;-73
2022/12/09 00:39:32;;;;;;;2.15;1.67;;;;;;;7.16;100.00;100916.50;5018021;28;20050;-72
2022/12/09 00:42:02;;;;;;;1.75;0.90;;;;;;;7.16;100.00;100913.03;5016103;28;20061;-74
2022/12/09 00:44:31;;;;;;;0.70;0.60;;;;;;;7.17;100.00;100918.28;5025233;28;20216;-73
2022/12/09 00:46:59;;;;;;;0.68;0.60;;;;;;;7.12;100.00;100914.59;5028888;28;20060;-72
2022/12/09 00:49:28;;;;;;;1.00;0.47;;;;;;;7.03;100.00;100904.78;5019848;28;20569;-73
2022/12/09 00:51:58;;;;;;;1.85;0.63;;;;;;;7.02;100.00;100912.41;5020820;28;20053;-71
2022/12/09 00:54:27;;;;;;;1.25;0.55;;;;;;;7.02;100.00;100915.84;5017010;28;20145;-72
2022/12/09 00:56:55;;;;;;;1.15;0.47;;;;;;;7.02;100.00;100909.84;5029403;28;20045;-71
2022/12/09 00:59:24;;;;;;;1.38;0.73;;;;;;;6.99;100.00;100915.72;5023023;28;20084;-72
2022/12/09 01:01:53;;;;;;;1.40;0.60;;;;;;;6.99;100.00;100918.31;5023866;28;20132;-72
2022/12/09 01:04:23;;;;;;;0.95;0.70;;;;;;;6.99;100.00;100917.44;5028454;28;20042;-71
2022/12/09 01:06:52;;;;;;;1.60;0.60;;;;;;;6.98;100.00;100913.06;5023047;28;20156;-71
2022/12/09 01:09:23;;;;;;;4.35;0.82;;;;;;;6.98;100.00;100916.50;5027324;28;20053;-70
2022/12/09 01:11:51;;;;;;;1.52;0.68;;;;;;;6.99;100.00;100912.28;5013637;28;20562;-71
2022/12/09 01:14:20;;;;;;;1.10;0.50;;;;;;;6.97;100.00;100919.03;5019199;28;20479;-72
2022/12/09 01:16:48;;;;;;;0.93;0.47;;;;;;;6.95;100.00;100920.66;5024440;28;20062;-71
2022/12/09 01:19:17;;;;;;;1.55;0.70;;;;;;;6.92;100.00;100922.28;5022965;28;20056;-71
2022/12/09 01:21:46;;;;;;;1.02;0.75;;;;;;;6.87;100.00;100926.31;5022601;28;20045;-71
2022/12/09 01:24:15;;;;;;;1.25;0.60;;;;;;;6.86;100.00;100924.53;5017933;28;20057;-70
2022/12/09 01:26:45;;;;;;;2.42;0.80;;;;;;;6.81;100.00;100923.47;5024418;28;20042;-73
2022/12/09 01:29:14;;;;;;;2.63;1.35;;;;;;;6.79;100.00;100925.06;5025539;28;20523;-70
2022/12/09 01:31:42;;;;;;;2.40;1.27;;;;;;;6.79;100.00;100925.06;5028993;28;20415;-73
2022/12/09 01:34:11;;;;;;;2.42;1.38;;;;;;;6.77;100.00;100925.81;5028594;28;20056;-72
2022/12/09 01:36:40;;;;;;;2.47;1.00;;;;;;;6.75;100.00;100919.72;5027647;28;20050;-71
2022/12/09 01:39:08;;;;;;;4.35;1.48;;;;;;;6.72;100.00;100925.59;5026119;28;20564;-72
2022/12/09 01:41:37;;;;;;;1.92;1.08;;;;;;;6.67;100.00;100927.06;5032722;28;20107;-74
2022/12/09 01:44:20;;;;;;;5.72;1.55;;;;;;;6.60;100.00;100932.72;5028203;28;20060;-72
2022/12/09 01:46:49;;;;;;;2.85;1.10;;;;;;;6.56;100.00;100938.53;5029952;28;20053;-73
2022/12/09 01:49:21;;;;;;;3.05;1.50;;;;;;;6.52;100.00;100929.78;5029047;28;20042;-72
2022/12/09 01:51:57;;;;;;;2.42;1.35;;;;;;;6.44;100.00;100937.13;5030472;28;20081;-72
2022/12/09 01:54:26;;;;;;;2.58;1.50;;;;;;;6.37;100.00;100942.78;5029041;28;20103;-72
2022/12/09 01:56:55;;;;;;;1.98;0.90;;;;;;;6.32;100.00;100939.06;5025257;28;20042;-72
2022/12/09 01:59:26;;;;;;;5.15;1.05;;;;;;;6.30;100.00;100943.28;5027732;28;20041;-72
2022/12/09 02:01:59;;;;;;;4.38;1.45;;;;;;;6.23;100.00;100941.19;5028494;28;20053;-72
2022/12/09 02:04:28;;;;;;;;;;;;;;;6.23;100.00;100947.22;5021850;28;20461;-73
2022/12/09 02:06:57;;;;;;;1.52;1.05;;;;;;;6.21;100.00;100945.38;5029722;28;19928;-72
2022/12/09 02:09:26;;;;;;;1.42;1.00;;;;;;;6.14;100.00;100946.75;5030206;28;20519;-74
2022/12/09 02:12:10;;;;;;;2.95;1.10;;;;;;;6.11;100.00;100956.00;5022724;28;20260;-74
2022/12/09 02:14:46;;;;;;;1.42;0.90;;;;;;;6.11;100.00;100940.56;5030186;28;20129;-74
2022/12/09 02:17:27;;;;;;;1.73;1.00;;;;;;;6.05;100.00;100947.19;5030141;28;20054;-75
2022/12/09 02:20:04;;;;;;;3.30;1.10;;;;;;;6.04;100.00;100954.78;5032325;28;20743;-73
2022/12/09 02:22:38;;;;;;;1.35;0.98;;;;;;;5.96;100.00;100948.41;5028008;28;20046;-71
2022/12/09 02:25:21;;;;;;;0.88;0.55;;;;;;;5.92;100.00;100949.00;5029260;28;20506;-76
2022/12/09 02:28:01;;;;;;;1.50;0.60;;;;;;;5.86;100.00;100950.47;5026456;28;20068;-75
2022/12/09 02:30:34;;;;;;;2.33;1.17;;;;;;;5.85;100.00;100947.81;5027079;28;20049;-73
2022/12/09 02:33:22;;;;;;;1.02;0.47;;;;;;;5.75;100.00;100951.59;5029646;28;20515;-75
2022/12/09 02:35:57;;;;;;;1.60;0.70;;;;;;;5.74;100.00;100948.94;5025658;28;20111;-74
2022/12/09 02:38:29;;;;;;;0.40;0.30;;;;;;;5.73;100.00;100949.75;5023065;28;20549;-75
2022/12/09 02:41:03;;;;;;;0.98;0.70;;;;;;;5.71;100.00;100946.22;5020768;28;20680;-71
2022/12/09 02:43:36;;;;;;;2.85;0.98;;;;;;;5.64;100.00;100945.88;5027464;28;20053;-71
2022/12/09 02:46:09;;;;;;;0.55;0.50;;;;;;;5.66;100.00;100946.84;5028967;28;20507;-71
2022/12/09 02:48:42;;;;;;;0.80;0.63;;;;;;;5.63;100.00;100951.81;5031533;28;20045;-73
2022/12/09 02:51:17;;;;;;;1.83;0.98;;;;;;;5.61;100.00;100956.00;5020764;28;20046;-71
2022/12/09 02:53:49;;;;;;;2.20;0.82;;;;;;;5.63;100.00;100951.81;5023537;28;20108;-71
2022/12/09 02:56:19;;;;;;;2.67;0.85;;;;;;;5.64;100.00;100957.84;5026938;28;20056;-70
2022/12/09 02:58:49;;;;;;;2.15;0.82;;;;;;;5.62;100.00;100957.75;5023487;28;20510;-73
2022/12/09 03:01:23;;;;;;;5.95;0.77;;;;;;;5.63;100.00;100961.19;5031300;28;20568;-70
2022/12/09 03:03:54;;;;;;;2.38;0.80;;;;;;;5.55;100.00;100963.38;5025222;28;20080;-71
2022/12/09 03:06:31;;;;;;;1.92;0.85;;;;;;;5.56;100.00;100966.81;5028370;28;20045;-71
2022/12/09 03:09:04;;;;;;;2.40;0.70;;;;;;;5.49;100.00;100968.16;5027462;28;20644;-70
2022/12/09 03:11:34;;;;;;;1.80;0.70;;;;;;;5.43;100.00;100963.63;5030926;28;20129;-73
2022/12/09 03:14:07;;;;;;;2.33;0.80;;;;;;;5.38;100.00;100965.06;5025017;28;20107;-73
2022/12/09 03:16:40;;;;;;;2.00;0.70;;;;;;;5.40;100.00;100959.97;5022973;28;20455;-74
2022/12/09 03:19:14;;;;;;;2.50;0.70;;;;;;;5.41;100.00;100967.78;5022087;28;20117;-73
2022/12/09 03:21:47;;;;;;;2.72;0.45;;;;;;;5.43;100.00;100968.75;5017131;28;20657;-73
2022/12/09 03:24:19;;;;;;;1.35;1.00;;;;;;;5.43;100.00;100963.63;5031534;28;20495;-74
2022/12/09 03:26:50;;;;;;;3.03;0.82;;;;;;;5.42;100.00;100968.66;5023858;28;20214;-73
2022/12/09 03:29:24;;;;;;;4.38;0.90;;;;;;;5.40;100.00;100975.38;5022038;28;20045;-74
2022/12/09 03:31:55;;;;;;;0.95;0.50;;;;;;;5.41;100.00;100977.16;5026068;28;20052;-75
2022/12/09 03:34:29;;;;;;;0.82;0.52;;;;;;;5.40;100.00;100977.94;5030760;28;20045;-74
2022/12/09 03:37:00;;;;;;;2.67;0.80;;;;;;;5.38;100.00;100974.41;5026577;28;20087;-75
2022/12/09 03:39:34;;;;;;;1.58;0.90;;;;;;;5.43;100.00;100983.25;5025283;28;20042;-75
2022/12/09 03:42:05;;;;;;;1.80;0.63;;;;;;;5.41;100.00;100982.31;5019618;28;20049;-74
2022/12/09 03:44:39;;;;;;;2.25;0.75;;;;;;;5.42;100.00;100984.06;5020702;28;20077;-73
2022/12/09 03:47:09;;;;;;;2.90;0.80;;;;;;;5.42;100.00;100984.94;5018926;28;20259;-74
2022/12/09 03:49:39;;;;;;;1.00;0.90;;;;;;;5.46;100.00;100993.69;5024810;28;20081;-73
2022/12/09 03:52:16;;;;;;;2.53;0.82;;;;;;;5.52;100.00;100999.16;5030365;28;20065;-73
2022/12/09 03:54:46;;;;;;;5.50;1.10;;;;;;;5.53;100.00;100994.91;5018935;28;20053;-73
2022/12/09 03:57:17;;;;;;;5.53;1.05;;;;;;;5.56;100.00;100995.06;5026606;28;20046;-72
2022/12/09 03:59:51;;;;;;;4.90;1.00;;;;;;;5.55;100.00;101001.00;5019884;28;20057;-73
2022/12/09 04:02:20;;;;;;;3.63;1.52;;;;;;;5.50;100.00;100987.91;5023739;28;20051;-73
2022/12/09 04:04:48;;;;;;;3.53;1.20;;;;;;;5.50;100.00;100990.50;5023100;28;20049;-71
2022/12/09 04:07:19;;;;;;;3.67;1.30;;;;;;;5.53;100.00;100993.22;5027093;28;20049;-72
2022/12/09 04:09:48;;;;;;;3.20;1.33;;;;;;;5.55;100.00;100988.16;5022281;28;20056;-72
2022/12/09 04:12:16;;;;;;;4.80;2.08;;;;;;;5.58;100.00;100988.31;5013913;28;20140;-71
2022/12/09 04:14:45;;;;;;;2.75;1.40;;;;;;;5.59;100.00;100995.19;5015230;28;20103;-73
2022/12/09 04:17:14;;;;;;;2.97;1.33;;;;;;;5.63;100.00;100992.88;5027841;28;20514;-75
2022/12/09 04:19:43;;;;;;;2.75;1.45;;;;;;;5.64;100.00;100992.09;5018919;28;20081;-75
2022/12/09 04:22:12;;;;;;;2.50;1.42;;;;;;;5.64;100.00;100994.66;5023752;28;20398;-75
2022/12/09 04:24:42;;;;;;;3.00;2.10;;;;;;;5.63;100.00;100990.31;5020933;28;20487;-73
2022/12/09 04:27:12;;;;;;;2.97;1.50;;;;;;;5.62;100.00;100991.13;5024759;28;20743;-74
2022/12/09 04:29:40;;;;;;;3.40;2.08;;;;;;;5.60;100.00;100992.72;5018609;28;20499;-75
2022/12/09 04:32:09;;;;;;;7.93;2.58;;;;;;;5.57;100.00;100996.84;5024934;28;20045;-73
2022/12/09 04:34:38;;;;;;;5.35;2.63;;;;;;;5.55;100.00;101007.00;5023521;28;20049;-74
2022/12/09 04:37:07;;;;;;;3.03;2.15;;;;;;;5.56;100.00;101011.34;5024603;28;20064;-73
2022/12/09 04:39:35;;;;;;;6.22;2.50;;;;;;;5.57;100.00;101007.97;5023404;28;20045;-73
2022/12/09 04:42:06;;;;;;;4.43;2.38;;;;;;;5.56;100.00;101010.44;5014696;28;20061;-75
2022/12/09 04:44:35;;;;;;;5.22;2.83;;;;;;;5.56;100.00;101006.19;5026005;28;20042;-73
2022/12/09 04:47:03;;;;;;;5.97;2.22;;;;;;;5.56;100.00;101015.59;5020506;28;20084;-75
2022/12/09 04:49:32;;;;;;;4.60;2.70;;;;;;;5.57;100.00;101022.50;5019578;28;20523;-75
2022/12/09 04:52:01;;;;;;;6.13;2.58;;;;;;;5.59;100.00;101015.75;5025833;28;20068;-74
2022/12/09 04:54:31;;;;;;;4.93;2.33;;;;;;;5.57;100.00;101023.38;5019095;28;20046;-75
2022/12/09 04:57:00;;;;;;;4.28;2.42;;;;;;;5.51;100.00;101020.47;5026646;28;20590;-74
2022/12/09 04:59:31;;;;;;;7.53;3.78;;;;;;;5.54;100.00;101023.19;5021735;28;20152;-75
2022/12/09 05:02:00;;;;;;;5.78;3.13;;;;;;;5.48;100.00;101024.56;5018527;28;20053;-71
2022/12/09 05:04:29;;;;;;;4.60;2.88;;;;;;;5.46;100.00;101027.06;5025695;28;20068;-75
2022/12/09 05:06:57;;;;;;;3.20;2.10;;;;;;;5.45;100.00;101028.75;5025084;28;20050;-76
2022/12/09 05:09:26;;;;;;;7.47;2.90;;;;;;;5.47;100.00;101026.22;5024488;28;20096;-74
2022/12/09 05:11:57;;;;;;;4.75;2.65;;;;;;;5.48;100.00;101022.88;5020706;28;20714;-76
2022/12/09 05:14:25;;;;;;;6.07;2.83;;;;;;;5.53;100.00;101031.72;5024476;28;20045;-76
2022/12/09 05:16:56;;;;;;;5.47;3.00;;;;;;;5.56;100.00;101025.84;5028779;28;20057;-72
2022/12/09 05:19:25;;;;;;;4.65;2.85;;;;;;;5.58;100.00;101030.25;5024390;28;20145;-74
2022/12/09 05:21:53;;;;;;;6.38;3.42;;;;;;;5.59;100.00;101032.06;5019585;28;20052;-73
2022/12/09 05:24:22;;;;;;;7.72;3.10;;;;;;;5.61;100.00;101035.59;5025584;28;20057;-73
2022/12/09 05:26:51;;;;;;;5.03;2.80;;;;;;;5.65;100.00;101034.91;5024341;28;20060;-75
2022/12/09 05:29:19;;;;;;;3.30;2.78;;;;;;;5.67;100.00;101041.03;5020311;28;20407;-76
2022/12/09 05:31:50;;;;;;;4.82;2.85;;;;;;;5.72;100.00;101048.09;5024024;28;20563;-75
2022/12/09 05:34:20;;;;;;;4.07;2.67;;;;;;;5.75;100.00;101048.25;5020151;28;20054;-74
2022/12/09 05:36:49;;;;;;;2.78;2.53;;;;;;;5.77;100.00;101051.78;5022373;28;20049;-75
2022/12/09 05:39:17;;;;;;;4.57;2.42;;;;;;;5.77;100.00;101055.25;5024715;28;20045;-75
2022/12/09 05:41:46;;;;;;;3.35;1.85;;;;;;;5.75;100.00;101050.81;5024881;28;20491;-74
2022/12/09 05:44:15;;;;;;;3.53;1.85;;;;;;;5.67;100.00;101056.44;5024569;28;20048;-75
2022/12/09 05:46:44;;;;;;;2.55;1.77;;;;;;;5.64;100.00;101063.97;5021410;28;20504;-74
2022/12/09 05:49:13;;;;;;;2.05;1.60;;;;;;;5.62;100.00;101068.16;5019555;28;20391;-74
2022/12/09 05:51:43;;;;;;;4.35;1.55;;;;;;;5.62;100.00;101060.44;5022915;28;20053;-74
2022/12/09 05:54:12;;;;;;;4.25;1.83;;;;;;;5.59;100.00;101057.72;5020340;28;20053;-74
2022/12/09 05:56:41;;;;;;;2.90;1.60;;;;;;;5.56;100.00;101057.53;5025382;28;20041;-75
2022/12/09 05:59:10;;;;;;;2.75;1.50;;;;;;;5.54;100.00;101056.56;5024732;28;20112;-75
2022/12/09 06:01:39;;;;;;;1.67;1.20;;;;;;;5.54;100.00;101063.38;5026665;28;20049;-75
2022/12/09 06:04:08;;;;;;;1.80;1.35;;;;;;;5.53;100.00;101066.78;5022557;28;20085;-75
2022/12/09 06:06:37;;;;;;;3.70;1.70;;;;;;;5.52;100.00;101060.75;5024958;28;20503;-76
2022/12/09 06:09:10;;;;;;;3.47;1.83;;;;;;;5.56;100.00;101060.09;5024221;28;20993;-75
2022/12/09 06:11:39;;;;;;;3.65;2.33;;;;;;;5.56;100.00;101069.50;5013613;28;20054;-75
2022/12/09 06:14:09;;;;;;;3.58;1.80;;;;;;;5.58;100.00;101066.19;5003853;28;20554;-76
2022/12/09 06:16:38;;;;;;;2.88;1.70;;;;;;;5.61;100.00;101063.81;5006471;28;20129;-75
2022/12/09 06:19:07;;;;;;;3.10;1.73;;;;;;;5.62;100.00;101067.28;5004736;28;20501;-74
2022/12/09 06:21:36;;;;;;;2.88;1.50;;;;;;;5.62;100.00;101063.00;5002387;28;20057;-76
2022/12/09 06:24:08;;;;;;;1.90;1.48;;;;;;;5.65;100.00;101062.28;5003651;28;20146;-74
2022/12/09 06:26:37;;;;;;;3.33;1.52;;;;;;;5.66;100.00;101059.81;5004658;28;20077;-75
2022/12/09 06:29:05;;;;;;;5.82;1.70;;;;;;;5.63;100.00;101056.19;5007317;28;20038;-74
2022/12/09 06:31:34;;;;;;;5.18;1.77;;;;;;;5.73;100.00;101060.16;5004551;28;20056;-73
2022/12/09 06:34:03;;;;;;;2.25;1.60;;;;;;;5.74;100.00;101073.06;5002756;28;20057;-74
2022/12/09 06:36:32;;;;;;;3.40;2.28;;;;;;;5.75;100.00;101072.28;5007134;28;20447;-73
2022/12/09 06:39:03;;;;;;;3.25;1.73;;;;;;;5.78;100.00;101066.41;5003246;28;20435;-76
2022/12/09 06:41:34;;;;;;;4.38;1.63;;;;;;;5.81;100.00;101069.13;5005823;28;20551;-76
2022/12/09 06:44:02;;;;;;;3.22;1.67;;;;;;;5.83;100.00;101064.97;5003184;28;20050;-76
2022/12/09 06:46:31;;;;;;;1.85;1.50;;;;;;;5.85;100.00;101068.50;5008118;28;20054;-76
2022/12/09 06:49:00;;;;;;;3.13;1.98;;;;;;;5.86;100.00;101062.56;5006254;28;20795;-76
2022/12/09 06:51:28;;;;;;;3.20;2.17;;;;;;;5.89;100.00;101073.00;5005979;28;20053;-75
2022/12/09 06:53:57;;;;;;;3.70;1.90;;;;;;;5.87;100.00;101075.47;5001605;28;20050;-75
2022/12/09 06:56:26;;;;;;;3.55;1.92;;;;;;;5.86;100.00;101067.69;5007923;28;20084;-75
2022/12/09 06:58:56;;;;;;;3.00;1.35;;;;;;;5.83;100.00;101062.41;5006300;28;20050;-74
2022/12/09 07:01:32;;;;;;;2.50;1.80;;;;;;;5.81;100.00;101064.88;5008573;28;20515;-75
2022/12/09 07:04:01;;;;;;;5.97;2.17;;;;;;;5.81;100.00;101061.44;5006337;28;20488;-73
2022/12/09 07:06:32;;;;;;;4.50;3.20;;;;;;;5.75;100.00;101050.81;5007078;28;20057;-74
2022/12/09 07:09:02;;;;;;;6.75;3.35;;;;;;;5.75;100.00;101073.94;5007304;28;20504;-74
2022/12/09 07:11:31;;;;;;;3.58;2.53;;;;;;;5.71;100.00;101067.75;5019902;28;20053;-74
2022/12/09 07:14:01;;;;;;;3.42;2.85;;;;;;;5.69;100.00;101068.47;5031380;28;20056;-74
2022/12/09 07:16:30;;;;;;;4.63;3.33;;;;;;;5.68;100.00;101075.31;5028628;28;20045;-73
2022/12/09 07:18:59;;;;;;;6.78;3.92;;;;;;;5.63;100.00;101069.91;5027108;28;20550;-74
2022/12/09 07:21:28;;;;;;;5.60;3.63;;;;;;;5.61;100.00;101073.19;5018932;28;20574;-74
2022/12/09 07:23:59;;;;;;;5.40;3.10;;;;;;;5.64;100.00;101075.94;5027437;28;20049;-74
2022/12/09 07:26:31;;;;;;;8.75;3.95;;;;;;;5.62;100.00;101073.28;5026130;28;20565;-74
2022/12/09 07:29:03;;;;;;;6.85;3.10;;;;;;;5.66;100.00;101090.63;5025479;28;20053;-73
2022/12/09 07:31:32;;;;;;;6.28;4.30;;;;;;;5.63;100.00;101090.44;5022867;28;20520;-74
2022/12/09 07:34:00;;;;;;;5.60;4.00;;;;;;;5.69;100.00;101099.28;5027332;28;20053;-74
2022/12/09 07:36:31;;;;;;;5.93;3.58;;;;;;;5.71;100.00;101095.13;5027280;28;20427;-74
2022/12/09 07:39:01;;;;;;;5.28;3.97;;;;;;;5.69;100.00;101094.16;5021774;28;20085;-74
2022/12/09 07:41:30;;;;;;;7.55;3.42;;;;;;;5.66;100.00;101100.00;5024665;28;20136;-73
2022/12/09 07:43:58;;;;;;;4.47;3.28;;;;;;;5.59;100.00;101100.44;5023652;28;20701;-73
2022/12/09 07:46:29;;;;;;;4.55;3.33;;;;;;;5.46;100.00;101083.50;5026539;28;20057;-75
2022/12/09 07:48:58;;;;;;;4.82;3.40;;;;;;;5.50;100.00;101095.72;5025367;28;20498;-73
2022/12/09 07:51:28;;;;;;;6.30;3.70;;;;;;;5.44;100.00;101093.69;5025768;28;20068;-73
2022/12/09 07:53:57;;;;;;;6.57;3.63;;;;;;;5.35;100.00;101093.16;5026377;28;20131;-73
2022/12/09 07:56:27;;;;;;;5.40;3.28;;;;;;;5.33;100.00;101089.63;5019183;28;20063;-73
2022/12/09 07:58:55;;;;;;;6.13;2.95;;;;;;;5.34;100.00;101085.41;5025238;28;20053;-73
2022/12/09 08:01:25;;;;;;;3.92;2.92;;;;;;;5.34;100.00;101081.16;5025577;28;20053;-73
2022/12/09 08:03:56;;;;;;;5.38;3.60;;;;;;;5.33;100.00;101073.34;5025725;28;20561;-73
2022/12/09 08:06:27;;;;;;;7.97;3.45;;;;;;;5.30;100.00;101075.75;5022608;28;20416;-73
2022/12/09 08:08:58;;;;;;;6.35;2.83;;;;;;;5.30;100.00;101073.19;5026293;28;20085;-73
2022/12/09 08:11:28;;;;;;;6.85;3.28;;;;;;;5.28;100.00;101064.53;5016354;28;20633;-73
2022/12/09 08:13:58;;;;;;;3.78;3.00;;;;;;;5.23;100.00;101065.16;5004473;28;20050;-73
2022/12/09 08:16:27;;;;;;;3.35;2.13;;;;;;;5.24;100.00;101079.75;5008182;28;20046;-73
2022/12/09 08:18:57;;;;;;;4.45;2.20;;;;;;;5.18;100.00;101076.84;5006270;28;20053;-73
2022/12/09 08:21:27;;;;;;;3.97;2.30;;;;;;;5.18;100.00;101074.28;5007092;28;20131;-73
2022/12/09 08:23:57;;;;;;;4.15;2.53;;;;;;;5.18;100.00;101084.53;5004308;28;20057;-73
2022/12/09 08:26:27;;;;;;;3.28;2.45;;;;;;;5.18;100.00;101079.41;5005640;28;20061;-73
2022/12/09 08:28:56;;;;;;;5.82;2.65;;;;;;;5.21;100.00;101083.81;5006797;28;20485;-73
2022/12/09 08:31:26;;;;;;;4.68;2.45;;;;;;;5.20;100.00;101072.69;5006186;28;20049;-73
2022/12/09 08:33:55;;;;;;;7.30;2.75;;;;;;;5.22;100.00;101073.66;5005848;28;20076;-73
2022/12/09 08:36:26;;;;;;;4.13;2.33;;;;;;;5.23;100.00;101079.66;5008187;28;20653;-73
2022/12/09 08:38:56;;;;;;;2.92;2.50;;;;;;;5.23;100.00;101075.41;5002657;28;20637;-73
2022/12/09 08:41:33;;;;;;;3.10;1.98;;;;;;;5.23;100.00;101069.41;5000008;28;20058;-73
2022/12/09 08:44:02;;;;;;;3.28;2.33;;;;;;;5.25;100.00;101070.38;5000336;28;20549;-72
2022/12/09 08:46:31;;;;;;;6.00;2.40;;;;;;;5.24;100.00;101069.50;4997197;28;20133;-72
2022/12/09 08:49:01;;;;;;;3.22;1.90;;;;;;;5.23;100.00;101061.72;5004310;28;20057;-73
2022/12/09 08:51:31;;;;;;;4.07;1.80;;;;;;;5.23;100.00;101066.84;5003028;28;20053;-73
2022/12/09 08:54:01;;;;;;;4.53;1.98;;;;;;;5.15;100.00;101063.81;5004671;28;20050;-72
2022/12/09 08:56:29;;;;;;;2.08;1.75;;;;;;;5.11;100.00;101061.91;5003478;28;20061;-74
2022/12/09 08:58:58;;;;;;;1.35;1.25;;;;;;;5.04;100.00;101067.50;5004641;28;20555;-72
2022/12/09 09:01:31;;;;;;;5.97;1.75;;;;;;;5.02;100.00;101057.13;5003415;28;20733;-72
2022/12/09 09:04:01;;;;;;;3.15;1.70;;;;;;;5.03;100.00;101055.44;5006750;28;20057;-72
2022/12/09 09:06:31;;;;;;;1.70;1.23;;;;;;;5.00;100.00;101060.41;4999637;28;20054;-72
2022/12/09 09:09:00;;;;;;;1.75;1.35;;;;;;;5.00;100.00;101062.97;5000740;28;20090;-72
2022/12/09 09:11:29;;;;;;;2.45;1.20;;;;;;;4.96;100.00;101059.34;5007538;28;20056;-72
2022/12/09 09:13:57;;;;;;;2.55;1.90;;;;;;;4.88;100.00;101057.13;4999929;28;20057;-72
2022/12/09 09:16:27;;;;;;;4.68;2.00;;;;;;;4.84;100.00;101063.78;5004258;28;20120;-73
2022/12/09 09:18:56;;;;;;;1.90;1.27;;;;;;;4.81;100.00;101071.28;5005978;28;20041;-73
2022/12/09 09:21:26;;;;;;;1.65;1.17;;;;;;;4.81;100.00;101068.72;5004356;28;20049;-71
2022/12/09 09:23:56;;;;;;;2.03;1.33;;;;;;;4.83;100.00;101064.56;4998863;28;20102;-72
2022/12/09 09:26:28;;;;;;;2.42;1.25;;;;;;;4.83;100.00;101060.34;5003790;28;20049;-72
2022/12/09 09:28:57;;;;;;;2.88;1.52;;;;;;;4.80;100.00;101055.03;5010386;28;20729;-72
2022/12/09 09:31:26;;;;;;;1.70;1.25;;;;;;;4.79;100.00;101053.25;5004547;28;20050;-72
2022/12/09 09:33:54;;;;;;;2.47;1.55;;;;;;;4.76;100.00;101047.94;5005224;28;20053;-72
2022/12/09 09:36:24;;;;;;;2.97;1.80;;;;;;;4.69;100.00;101033.00;5003762;28;20041;-72
2022/12/09 09:38:54;;;;;;;2.97;1.30;;;;;;;4.77;100.00;101044.59;5005578;28;21195;-72
2022/12/09 09:41:33;;;;;;;3.63;1.67;;;;;;;4.79;100.00;101047.25;5007188;28;20127;-72
2022/12/09 09:44:03;;;;;;;2.67;1.38;;;;;;;4.80;100.00;101047.31;5001848;28;20050;-71
2022/12/09 09:46:40;;;;;;;2.22;1.45;;;;;;;4.84;100.00;101050.97;5004214;28;20096;-72
2022/12/09 09:49:15;;;;;;;2.40;1.48;;;;;;;4.86;100.00;101048.50;5006583;28;20499;-72
2022/12/09 09:51:43;;;;;;;2.80;1.58;;;;;;;4.85;100.00;101051.84;5004669;28;20491;-72
2022/12/09 09:54:15;;;;;;;2.30;1.60;;;;;;;4.83;100.00;101046.63;5003244;28;20102;-72
2022/12/09 09:56:53;;;;;;;2.15;1.40;;;;;;;4.83;100.00;101054.31;5007691;28;20042;-72
2022/12/09 09:59:34;;;;;;;1.77;1.27;;;;;;;4.82;100.00;101048.31;5005869;28;20150;-73
2022/12/09 10:02:18;;;;;;;1.92;1.58;;;;;;;4.87;100.00;101047.69;5006726;28;20064;-72
2022/12/09 10:04:55;;;;;;;2.92;1.33;;;;;;;4.88;100.00;101039.19;5010185;28;20165;-72
2022/12/09 10:07:31;;;;;;;4.75;2.03;;;;;;;4.83;100.00;101044.06;5008274;28;20057;-72
2022/12/09 10:10:07;;;;;;;3.03;1.88;;;;;;;4.83;100.00;101041.50;5003172;28;20046;-72
2022/12/09 10:12:46;;;;;;;3.55;1.75;;;;;;;4.81;100.00;101041.41;5018958;28;20057;-73
2022/12/09 10:15:17;;;;;;;3.60;2.30;;;;;;;4.82;100.00;101047.44;5027677;28;20046;-72
2022/12/09 10:17:50;;;;;;;1.92;1.50;;;;;;;4.80;100.00;101049.88;5029200;28;20054;-71
2022/12/09 10:20:21;;;;;;;3.78;1.58;;;;;;;4.81;100.00;101048.19;5031137;28;20384;-72
2022/12/09 10:22:54;;;;;;;2.92;1.90;;;;;;;4.76;100.00;101042.81;5027116;28;20587;-73
2022/12/09 10:25:25;;;;;;;2.00;1.70;;;;;;;4.74;100.00;101047.00;5029043;28;20083;-73
2022/12/09 10:28:05;;;;;;;3.45;2.63;;;;;;;4.73;100.00;101036.66;5025675;28;20042;-72
2022/12/09 10:30:34;;;;;;;2.35;1.67;;;;;;;4.70;100.00;101047.59;5027806;28;20049;-72
2022/12/09 10:33:03;;;;;;;2.22;1.20;;;;;;;4.67;100.00;101039.72;5029601;28;20060;-73
2022/12/09 10:35:31;;;;;;;4.28;1.88;;;;;;;4.68;100.00;101048.31;5028442;28;20525;-72
2022/12/09 10:38:08;;;;;;;3.55;1.77;;;;;;;4.67;100.00;101052.53;5028049;28;20753;-72
2022/12/09 10:40:42;;;;;;;1.95;1.50;;;;;;;4.68;100.00;101056.88;5026304;28;20218;-72
2022/12/09 10:43:34;;;;;;;3.00;1.63;;;;;;;4.71;100.00;101048.50;5028157;28;20077;-72
2022/12/09 10:46:05;;;;;;;3.08;1.65;;;;;;;4.68;100.00;101046.63;5027563;28;20550;-72
2022/12/09 10:48:36;;;;;;;2.30;1.65;;;;;;;4.70;100.00;101047.59;5026329;28;20052;-72
2022/12/09 10:51:08;;;;;;;2.67;1.70;;;;;;;4.69;100.00;101038.13;5026619;28;20045;-72
2022/12/09 10:53:37;;;;;;;5.00;1.73;;;;;;;4.67;100.00;101042.28;5028725;28;20049;-72
2022/12/09 10:56:07;;;;;;;4.90;1.58;;;;;;;4.69;100.00;101034.69;5027996;28;20282;-72
2022/12/09 10:58:37;;;;;;;2.90;1.58;;;;;;;4.73;100.00;101037.53;5026506;28;20045;-72
2022/12/09 11:01:12;;;;;;;1.95;1.65;;;;;;;4.73;100.00;101036.66;5026134;28;20053;-72
2022/12/09 11:03:47;;;;;;;1.67;1.58;;;;;;;4.75;100.00;101033.38;5028159;28;20625;-72
2022/12/09 11:06:24;;;;;;;2.53;1.50;;;;;;;4.78;100.00;101024.97;5028066;28;20103;-72
2022/12/09 11:08:58;;;;;;;4.22;1.80;;;;;;;4.78;100.00;101025.84;5026133;28;20454;-74
2022/12/09 11:11:44;;;;;;;3.05;1.45;;;;;;;4.79;100.00;101016.50;5026140;28;20049;-72
2022/12/09 11:14:27;;;;;;;7.35;1.63;;;;;;;4.80;100.00;101023.38;5027236;28;20502;-72
2022/12/09 11:16:58;;;;;;;2.97;1.40;;;;;;;4.74;100.00;101000.84;5032302;28;20053;-72
2022/12/09 11:19:35;;;;;;;4.00;1.30;;;;;;;4.83;100.00;101011.63;5029438;28;20053;-73
2022/12/09 11:22:37;;;;;;;3.83;1.90;;;;;;;4.88;100.00;101000.72;5027822;28;20490;-74
2022/12/09 11:25:20;;;;;;;2.85;1.77;;;;;;;4.84;100.00;101004.81;4993626;28;20073;-74
2022/12/09 11:27:52;;;;;;;2.60;1.65;;;;;;;4.79;100.00;100996.88;5026860;28;20057;-75
2022/12/09 11:30:24;;;;;;;1.83;1.42;;;;;;;4.80;100.00;100998.63;5025964;28;20057;-73
2022/12/09 11:33:07;;;;;;;1.45;1.35;;;;;;;4.83;100.00;100988.56;5026233;28;20045;-73
2022/12/09 11:35:51;;;;;;;5.07;1.40;;;;;;;4.87;100.00;100988.72;5025739;28;20049;-73
2022/12/09 11:38:28;;;;;;;3.28;1.80;;;;;;;4.88;100.00;100983.69;5025547;28;20144;-74
2022/12/09 11:41:04;;;;;;;3.63;2.20;;;;;;;4.82;100.00;100981.66;5026935;28;20699;-73
2022/12/09 11:43:37;;;;;;;1.73;1.45;;;;;;;4.86;100.00;100982.72;5026313;28;20088;-73